Terminal Aerodrome Forecast
Issued by NWS

Home | Current Version | Previous Version | Text Only | Print | Product List | Glossary Off
Versions: 1 2 3 4 5 6 7 8 9 10 11 12 13 14 15 16 17 18 19 20 21 22 23 24 25 26 27 28 29

384
FTUS43 KPAH 272332
TAFOWB
TAF
KOWB 272332Z 2800/2824 16003KT P6SM FEW035 BKN250
     FM280200 11002KT P6SM SKC
     FM281330 01002KT P6SM FEW018 BKN100
     FM281600 04003KT P6SM SKC=

USA.gov is the U.S. government's official web portal to all federal, state and local government web resources and services.